sensor_id;sensor_type;location;lat;lon;timestamp;pressure;altitude;pressure_sealevel;temperature
43292;BMP280;28754;47.700;7.924;2022-07-05T00:00:18;91815.16;;;20.76
43292;BMP280;28754;47.700;7.924;2022-07-05T00:03:05;91817.00;;;20.75
43292;BMP280;28754;47.700;7.924;2022-07-05T00:05:52;91813.00;;;20.78
43292;BMP280;28754;47.700;7.924;2022-07-05T00:08:39;91813.31;;;20.76
43292;BMP280;28754;47.700;7.924;2022-07-05T00:11:26;91812.56;;;20.76
43292;BMP280;28754;47.700;7.924;2022-07-05T00:14:12;91811.03;;;20.75
43292;BMP280;28754;47.700;7.924;2022-07-05T00:16:59;91818.97;;;20.78
43292;BMP280;28754;47.700;7.924;2022-07-05T00:19:46;91816.38;;;20.78
43292;BMP280;28754;47.700;7.924;2022-07-05T00:22:32;91819.31;;;20.77
43292;BMP280;28754;47.700;7.924;2022-07-05T00:25:19;91821.56;;;20.78
43292;BMP280;28754;47.700;7.924;2022-07-05T00:28:06;91812.56;;;20.76
43292;BMP280;28754;47.700;7.924;2022-07-05T00:30:53;91815.91;;;20.76
43292;BMP280;28754;47.700;7.924;2022-07-05T00:33:40;91817.00;;;20.75
43292;BMP280;28754;47.700;7.924;2022-07-05T00:36:26;91821.91;;;20.68
43292;BMP280;28754;47.700;7.924;2022-07-05T00:39:14;91816.41;;;20.62
43292;BMP280;28754;47.700;7.924;2022-07-05T00:42:01;91811.75;;;20.59
43292;BMP280;28754;47.700;7.924;2022-07-05T00:44:48;91807.63;;;20.58
43292;BMP280;28754;47.700;7.924;2022-07-05T00:47:34;91812.06;;;20.57
43292;BMP280;28754;47.700;7.924;2022-07-05T00:50:21;91816.38;;;20.53
43292;BMP280;28754;47.700;7.924;2022-07-05T00:53:08;91804.72;;;20.51
43292;BMP280;28754;47.700;7.924;2022-07-05T00:55:55;91804.72;;;20.51
43292;BMP280;28754;47.700;7.924;2022-07-05T00:58:42;91812.50;;;20.51
43292;BMP280;28754;47.700;7.924;2022-07-05T01:01:29;91806.09;;;20.48
43292;BMP280;28754;47.700;7.924;2022-07-05T01:04:15;91807.47;;;20.46
43292;BMP280;28754;47.700;7.924;2022-07-05T01:07:03;91806.53;;;20.42
43292;BMP280;28754;47.700;7.924;2022-07-05T01:09:50;91802.72;;;20.39
43292;BMP280;28754;47.700;7.924;2022-07-05T01:12:40;91792.19;;;20.36
43292;BMP280;28754;47.700;7.924;2022-07-05T01:15:27;91792.75;;;20.33
43292;BMP280;28754;47.700;7.924;2022-07-05T01:18:15;91791.53;;;20.30
43292;BMP280;28754;47.700;7.924;2022-07-05T01:21:03;91794.16;;;20.30
43292;BMP280;28754;47.700;7.924;2022-07-05T01:23:50;91787.25;;;20.26
43292;BMP280;28754;47.700;7.924;2022-07-05T01:26:38;91788.31;;;20.25
43292;BMP280;28754;47.700;7.924;2022-07-05T01:29:26;91793.84;;;20.24
43292;BMP280;28754;47.700;7.924;2022-07-05T01:32:13;91790.47;;;20.23
43292;BMP280;28754;47.700;7.924;2022-07-05T01:35:01;91790.16;;;20.25
43292;BMP280;28754;47.700;7.924;2022-07-05T01:37:49;91793.84;;;20.24
43292;BMP280;28754;47.700;7.924;2022-07-05T01:40:37;91793.84;;;20.24
43292;BMP280;28754;47.700;7.924;2022-07-05T01:43:24;91793.06;;;20.23
43292;BMP280;28754;47.700;7.924;2022-07-05T01:46:12;91787.41;;;20.21
43292;BMP280;28754;47.700;7.924;2022-07-05T01:49:06;91791.69;;;20.17
43292;BMP280;28754;47.700;7.924;2022-07-05T01:51:58;91794.13;;;20.14
43292;BMP280;28754;47.700;7.924;2022-07-05T01:54:48;91787.84;;;20.06
43292;BMP280;28754;47.700;7.924;2022-07-05T01:57:35;91805.41;;;20.01
43292;BMP280;28754;47.700;7.924;2022-07-05T02:00:21;91805.25;;;19.97
43292;BMP280;28754;47.700;7.924;2022-07-05T02:03:09;91808.44;;;19.95
43292;BMP280;28754;47.700;7.924;2022-07-05T02:05:55;91807.97;;;19.93
43292;BMP280;28754;47.700;7.924;2022-07-05T02:08:43;91812.72;;;19.91
43292;BMP280;28754;47.700;7.924;2022-07-05T02:11:30;91807.66;;;19.86
43292;BMP280;28754;47.700;7.924;2022-07-05T02:14:17;91813.16;;;19.84
43292;BMP280;28754;47.700;7.924;2022-07-05T02:17:05;91806.72;;;19.82
43292;BMP280;28754;47.700;7.924;2022-07-05T02:19:53;91804.44;;;19.80
43292;BMP280;28754;47.700;7.924;2022-07-05T02:22:40;91805.00;;;19.77
43292;BMP280;28754;47.700;7.924;2022-07-05T02:25:28;91804.84;;;19.74
43292;BMP280;28754;47.700;7.924;2022-07-05T02:28:18;91806.81;;;19.68
43292;BMP280;28754;47.700;7.924;2022-07-05T02:31:09;91807.44;;;19.65
43292;BMP280;28754;47.700;7.924;2022-07-05T02:33:56;91804.66;;;19.62
43292;BMP280;28754;47.700;7.924;2022-07-05T02:36:44;91807.53;;;19.60
43292;BMP280;28754;47.700;7.924;2022-07-05T02:39:33;91808.63;;;19.60
43292;BMP280;28754;47.700;7.924;2022-07-05T02:42:21;91810.00;;;19.57
43292;BMP280;28754;47.700;7.924;2022-07-05T02:45:08;91814.25;;;19.53
43292;BMP280;28754;47.700;7.924;2022-07-05T02:47:57;91818.50;;;19.49
43292;BMP280;28754;47.700;7.924;2022-07-05T02:50:44;91808.25;;;19.44
43292;BMP280;28754;47.700;7.924;2022-07-05T02:53:32;91814.50;;;19.43
43292;BMP280;28754;47.700;7.924;2022-07-05T02:56:21;91821.81;;;19.41
43292;BMP280;28754;47.700;7.924;2022-07-05T02:59:08;91820.88;;;19.37
43292;BMP280;28754;47.700;7.924;2022-07-05T03:01:57;91827.16;;;19.36
43292;BMP280;28754;47.700;7.924;2022-07-05T03:04:45;91823.03;;;19.35
43292;BMP280;28754;47.700;7.924;2022-07-05T03:07:31;91823.03;;;19.35
43292;BMP280;28754;47.700;7.924;2022-07-05T03:10:19;91820.72;;;19.34
43292;BMP280;28754;47.700;7.924;2022-07-05T03:13:06;91820.72;;;19.34
43292;BMP280;28754;47.700;7.924;2022-07-05T03:15:53;91826.97;;;19.33
43292;BMP280;28754;47.700;7.924;2022-07-05T03:18:42;91818.88;;;19.34
43292;BMP280;28754;47.700;7.924;2022-07-05T03:21:29;91824.09;;;19.34
43292;BMP280;28754;47.700;7.924;2022-07-05T03:24:16;91827.16;;;19.36
43292;BMP280;28754;47.700;7.924;2022-07-05T03:27:04;91826.53;;;19.39
43292;BMP280;28754;47.700;7.924;2022-07-05T03:29:51;91815.09;;;19.40
43292;BMP280;28754;47.700;7.924;2022-07-05T03:32:37;91818.00;;;19.39
43292;BMP280;28754;47.700;7.924;2022-07-05T03:35:27;91824.41;;;19.41
43292;BMP280;28754;47.700;7.924;2022-07-05T03:38:15;91828.56;;;19.42
43292;BMP280;28754;47.700;7.924;2022-07-05T03:41:02;91832.38;;;19.45
43292;BMP280;28754;47.700;7.924;2022-07-05T03:43:49;91830.06;;;19.43
43292;BMP280;28754;47.700;7.924;2022-07-05T03:46:35;91831.63;;;19.44
43292;BMP280;28754;47.700;7.924;2022-07-05T03:49:22;91833.91;;;19.46
43292;BMP280;28754;47.700;7.924;2022-07-05T03:52:10;91838.81;;;19.47
43292;BMP280;28754;47.700;7.924;2022-07-05T03:54:56;91836.22;;;19.47
43292;BMP280;28754;47.700;7.924;2022-07-05T03:57:43;91840.38;;;19.48
43292;BMP280;28754;47.700;7.924;2022-07-05T04:00:31;91842.16;;;19.48
43292;BMP280;28754;47.700;7.924;2022-07-05T04:03:24;91848.16;;;19.48
43292;BMP280;28754;47.700;7.924;2022-07-05T04:06:13;91842.78;;;19.45
43292;BMP280;28754;47.700;7.924;2022-07-05T04:09:00;91840.78;;;19.42
43292;BMP280;28754;47.700;7.924;2022-07-05T04:11:47;91856.06;;;19.43
43292;BMP280;28754;47.700;7.924;2022-07-05T04:14:34;91853.94;;;19.45
43292;BMP280;28754;47.700;7.924;2022-07-05T04:17:21;91843.53;;;19.45
43292;BMP280;28754;47.700;7.924;2022-07-05T04:20:08;91845.09;;;19.46
43292;BMP280;28754;47.700;7.924;2022-07-05T04:22:55;91849.19;;;19.47
43292;BMP280;28754;47.700;7.924;2022-07-05T04:25:44;91850.75;;;19.48
43292;BMP280;28754;47.700;7.924;2022-07-05T04:28:44;91850.28;;;19.46
43292;BMP280;28754;47.700;7.924;2022-07-05T04:31:34;91853.34;;;19.48
43292;BMP280;28754;47.700;7.924;2022-07-05T04:34:21;91849.66;;;19.49
43292;BMP280;28754;47.700;7.924;2022-07-05T04:37:08;91853.34;;;19.48
43292;BMP280;28754;47.700;7.924;2022-07-05T04:39:55;91852.25;;;19.49
43292;BMP280;28754;47.700;7.924;2022-07-05T04:42:42;91853.44;;;19.43
43292;BMP280;28754;47.700;7.924;2022-07-05T04:45:31;91853.13;;;19.36
43292;BMP280;28754;47.700;7.924;2022-07-05T04:48:19;91861.03;;;19.31
43292;BMP280;28754;47.700;7.924;2022-07-05T04:51:06;91861.47;;;19.25
43292;BMP280;28754;47.700;7.924;2022-07-05T04:53:53;91859.63;;;19.26
43292;BMP280;28754;47.700;7.924;2022-07-05T04:56:42;91867.28;;;19.30
43292;BMP280;28754;47.700;7.924;2022-07-05T04:59:29;91865.03;;;19.37
43292;BMP280;28754;47.700;7.924;2022-07-05T05:02:16;91875.78;;;19.44
43292;BMP280;28754;47.700;7.924;2022-07-05T05:05:03;91871.34;;;19.45
43292;BMP280;28754;47.700;7.924;2022-07-05T05:07:49;91872.56;;;19.47
43292;BMP280;28754;47.700;7.924;2022-07-05T05:10:36;91878.72;;;19.51
43292;BMP280;28754;47.700;7.924;2022-07-05T05:13:23;91876.31;;;19.55
43292;BMP280;28754;47.700;7.924;2022-07-05T05:16:10;91878.47;;;19.61
43292;BMP280;28754;47.700;7.924;2022-07-05T05:18:56;91878.03;;;19.67
43292;BMP280;28754;47.700;7.924;2022-07-05T05:21:43;91877.63;;;19.74
43292;BMP280;28754;47.700;7.924;2022-07-05T05:24:30;91876.44;;;19.80
43292;BMP280;28754;47.700;7.924;2022-07-05T05:27:17;91881.97;;;19.87
43292;BMP280;28754;47.700;7.924;2022-07-05T05:30:04;91877.09;;;19.94
43292;BMP280;28754;47.700;7.924;2022-07-05T05:32:51;91888.78;;;20.04
43292;BMP280;28754;47.700;7.924;2022-07-05T05:35:37;91887.09;;;20.08
43292;BMP280;28754;47.700;7.924;2022-07-05T05:38:24;91891.03;;;19.97
43292;BMP280;28754;47.700;7.924;2022-07-05T05:41:11;91882.75;;;19.87
43292;BMP280;28754;47.700;7.924;2022-07-05T05:43:57;91888.69;;;19.88
43292;BMP280;28754;47.700;7.924;2022-07-05T05:46:44;91884.59;;;19.87
43292;BMP280;28754;47.700;7.924;2022-07-05T05:49:31;91888.69;;;19.88
43292;BMP280;28754;47.700;7.924;2022-07-05T05:52:17;91890.56;;;19.96
43292;BMP280;28754;47.700;7.924;2022-07-05T05:55:05;91899.94;;;20.05
43292;BMP280;28754;47.700;7.924;2022-07-05T05:57:52;91897.66;;;20.12
43292;BMP280;28754;47.700;7.924;2022-07-05T06:00:39;91898.44;;;20.21
43292;BMP280;28754;47.700;7.924;2022-07-05T06:03:27;91904.75;;;20.28
43292;BMP280;28754;47.700;7.924;2022-07-05T06:06:13;91915.31;;;20.31
43292;BMP280;28754;47.700;7.924;2022-07-05T06:09:00;91900.94;;;20.34
43292;BMP280;28754;47.700;7.924;2022-07-05T06:11:47;91908.13;;;20.37
43292;BMP280;28754;47.700;7.924;2022-07-05T06:14:33;91907.53;;;20.40
43292;BMP280;28754;47.700;7.924;2022-07-05T06:17:20;91912.13;;;20.43
43292;BMP280;28754;47.700;7.924;2022-07-05T06:20:28;91907.69;;;20.43
43292;BMP280;28754;47.700;7.924;2022-07-05T06:23:15;91909.38;;;20.48
43292;BMP280;28754;47.700;7.924;2022-07-05T06:26:02;91905.28;;;20.55
43292;BMP280;28754;47.700;7.924;2022-07-05T06:28:48;91903.31;;;20.61
43292;BMP280;28754;47.700;7.924;2022-07-05T06:31:36;91904.41;;;20.68
43292;BMP280;28754;47.700;7.924;2022-07-05T06:34:22;91907.63;;;20.73
43292;BMP280;28754;47.700;7.924;2022-07-05T06:37:09;91911.44;;;20.76
43292;BMP280;28754;47.700;7.924;2022-07-05T06:39:56;91912.53;;;20.75
43292;BMP280;28754;47.700;7.924;2022-07-05T06:42:42;91917.88;;;20.70
43292;BMP280;28754;47.700;7.924;2022-07-05T06:45:30;91920.34;;;20.66
43292;BMP280;28754;47.700;7.924;2022-07-05T06:48:17;91921.84;;;20.67
43292;BMP280;28754;47.700;7.924;2022-07-05T06:51:03;91934.56;;;20.69
43292;BMP280;28754;47.700;7.924;2022-07-05T06:53:50;91931.03;;;20.65
43292;BMP280;28754;47.700;7.924;2022-07-05T06:56:37;91934.72;;;20.64
43292;BMP280;28754;47.700;7.924;2022-07-05T06:59:23;91929.81;;;20.63
43292;BMP280;28754;47.700;7.924;2022-07-05T07:02:10;91927.81;;;20.60
43292;BMP280;28754;47.700;7.924;2022-07-05T07:04:57;91930.22;;;20.56
43292;BMP280;28754;47.700;7.924;2022-07-05T07:07:43;91935.72;;;20.55
43292;BMP280;28754;47.700;7.924;2022-07-05T07:10:48;91940.34;;;20.58
43292;BMP280;28754;47.700;7.924;2022-07-05T07:13:35;91948.31;;;20.61
43292;BMP280;28754;47.700;7.924;2022-07-05T07:16:22;91944.97;;;20.61
43292;BMP280;28754;47.700;7.924;2022-07-05T07:19:09;91941.63;;;20.68
43292;BMP280;28754;47.700;7.924;2022-07-05T07:21:56;91938.38;;;20.71
43292;BMP280;28754;47.700;7.924;2022-07-05T07:24:42;91948.22;;;20.74
43292;BMP280;28754;47.700;7.924;2022-07-05T07:27:29;91951.59;;;20.75
43292;BMP280;28754;47.700;7.924;2022-07-05T07:30:20;91948.22;;;20.74
43292;BMP280;28754;47.700;7.924;2022-07-05T07:33:07;91945.91;;;20.73
43292;BMP280;28754;47.700;7.924;2022-07-05T07:35:54;91949.28;;;20.73
43292;BMP280;28754;47.700;7.924;2022-07-05T07:38:40;91947.31;;;20.79
43292;BMP280;28754;47.700;7.924;2022-07-05T07:41:27;91945.00;;;20.77
43292;BMP280;28754;47.700;7.924;2022-07-05T07:44:14;91956.94;;;20.78
43292;BMP280;28754;47.700;7.924;2022-07-05T07:47:00;91947.59;;;20.77
43292;BMP280;28754;47.700;7.924;2022-07-05T07:49:47;91959.22;;;20.80
43292;BMP280;28754;47.700;7.924;2022-07-05T07:52:34;91949.75;;;20.84
43292;BMP280;28754;47.700;7.924;2022-07-05T07:55:20;91953.41;;;20.91
43292;BMP280;28754;47.700;7.924;2022-07-05T07:58:07;91960.03;;;20.97
43292;BMP280;28754;47.700;7.924;2022-07-05T08:00:54;91951.63;;;21.00
43292;BMP280;28754;47.700;7.924;2022-07-05T08:03:43;91963.56;;;21.01
43292;BMP280;28754;47.700;7.924;2022-07-05T08:06:29;91950.72;;;21.04
43292;BMP280;28754;47.700;7.924;2022-07-05T08:09:16;91949.47;;;21.10
43292;BMP280;28754;47.700;7.924;2022-07-05T08:12:03;91950.53;;;21.09
43292;BMP280;28754;47.700;7.924;2022-07-05T08:14:50;91945.81;;;21.11
43292;BMP280;28754;47.700;7.924;2022-07-05T08:17:37;91943.66;;;21.13
43292;BMP280;28754;47.700;7.924;2022-07-05T08:20:43;91949.78;;;21.17
43292;BMP280;28754;47.700;7.924;2022-07-05T08:23:48;91949.78;;;21.26
43292;BMP280;28754;47.700;7.924;2022-07-05T08:26:36;91955.91;;;21.30
43292;BMP280;28754;47.700;7.924;2022-07-05T08:29:23;91958.03;;;21.36
43292;BMP280;28754;47.700;7.924;2022-07-05T08:32:10;91961.31;;;21.41
43292;BMP280;28754;47.700;7.924;2022-07-05T08:34:56;91954.88;;;21.47
43292;BMP280;28754;47.700;7.924;2022-07-05T08:37:43;91954.25;;;21.50
43292;BMP280;28754;47.700;7.924;2022-07-05T08:40:36;91956.56;;;21.52
43292;BMP280;28754;47.700;7.924;2022-07-05T08:43:26;91968.66;;;21.56
43292;BMP280;28754;47.700;7.924;2022-07-05T08:46:16;91956.22;;;21.53
43292;BMP280;28754;47.700;7.924;2022-07-05T08:49:04;91966.34;;;21.55
43292;BMP280;28754;47.700;7.924;2022-07-05T08:51:52;91964.66;;;21.59
43292;BMP280;28754;47.700;7.924;2022-07-05T08:54:40;91967.72;;;21.69
43292;BMP280;28754;47.700;7.924;2022-07-05T08:57:26;91966.16;;;21.76
43292;BMP280;28754;47.700;7.924;2022-07-05T09:00:14;91967.38;;;21.79
43292;BMP280;28754;47.700;7.924;2022-07-05T09:03:00;91971.06;;;21.78
43292;BMP280;28754;47.700;7.924;2022-07-05T09:05:48;91948.06;;;21.80
43292;BMP280;28754;47.700;7.924;2022-07-05T09:08:38;91962.31;;;21.91
43292;BMP280;28754;47.700;7.924;2022-07-05T09:11:38;91952.94;;;21.90
43292;BMP280;28754;47.700;7.924;2022-07-05T09:14:25;91958.03;;;21.86
43292;BMP280;28754;47.700;7.924;2022-07-05T09:17:13;91960.75;;;21.90
43292;BMP280;28754;47.700;7.924;2022-07-05T09:20:12;91964.91;;;21.91
43292;BMP280;28754;47.700;7.924;2022-07-05T09:22:59;91966.41;;;22.00
43292;BMP280;28754;47.700;7.924;2022-07-05T09:25:46;91965.94;;;22.06
43292;BMP280;28754;47.700;7.924;2022-07-05T09:28:33;91971.31;;;22.18
43292;BMP280;28754;47.700;7.924;2022-07-05T09:31:28;91978.38;;;22.26
43292;BMP280;28754;47.700;7.924;2022-07-05T09:34:18;91970.97;;;22.28
43292;BMP280;28754;47.700;7.924;2022-07-05T09:37:05;91976.38;;;22.23
43292;BMP280;28754;47.700;7.924;2022-07-05T09:39:53;91967.00;;;22.22
43292;BMP280;28754;47.700;7.924;2022-07-05T09:42:40;91970.47;;;22.35
43292;BMP280;28754;47.700;7.924;2022-07-05T09:45:26;91979.09;;;22.35
43292;BMP280;28754;47.700;7.924;2022-07-05T09:48:13;91968.31;;;22.37
43292;BMP280;28754;47.700;7.924;2022-07-05T09:51:13;91975.28;;;22.33
43292;BMP280;28754;47.700;7.924;2022-07-05T09:54:01;91979.06;;;22.43
43292;BMP280;28754;47.700;7.924;2022-07-05T09:56:48;91972.13;;;22.47
43292;BMP280;28754;47.700;7.924;2022-07-05T09:59:35;91966.09;;;22.55
43292;BMP280;28754;47.700;7.924;2022-07-05T10:05:32;91969.00;;;22.54
43292;BMP280;28754;47.700;7.924;2022-07-05T10:08:20;91969.16;;;22.57
43292;BMP280;28754;47.700;7.924;2022-07-05T10:11:07;91959.66;;;22.53
43292;BMP280;28754;47.700;7.924;2022-07-05T10:13:54;91962.44;;;22.56
43292;BMP280;28754;47.700;7.924;2022-07-05T10:16:45;91952.09;;;22.60
43292;BMP280;28754;47.700;7.924;2022-07-05T10:19:41;91968.94;;;22.71
43292;BMP280;28754;47.700;7.924;2022-07-05T10:22:30;91963.06;;;22.82
43292;BMP280;28754;47.700;7.924;2022-07-05T10:25:16;91973.47;;;22.90
43292;BMP280;28754;47.700;7.924;2022-07-05T10:28:05;91973.75;;;22.97
43292;BMP280;28754;47.700;7.924;2022-07-05T10:30:52;91975.28;;;22.98
43292;BMP280;28754;47.700;7.924;2022-07-05T10:33:40;91970.00;;;23.07
43292;BMP280;28754;47.700;7.924;2022-07-05T10:36:27;91979.25;;;23.24
43292;BMP280;28754;47.700;7.924;2022-07-05T10:39:14;91977.47;;;23.16
43292;BMP280;28754;47.700;7.924;2022-07-05T10:42:05;91978.09;;;23.13
43292;BMP280;28754;47.700;7.924;2022-07-05T10:44:52;91983.69;;;23.04
43292;BMP280;28754;47.700;7.924;2022-07-05T10:47:39;91974.50;;;22.98
43292;BMP280;28754;47.700;7.924;2022-07-05T10:50:46;91980.88;;;22.88
43292;BMP280;28754;47.700;7.924;2022-07-05T10:56:23;91981.59;;;22.97
43292;BMP280;28754;47.700;7.924;2022-07-05T10:59:10;91979.75;;;23.18
43292;BMP280;28754;47.700;7.924;2022-07-05T11:02:12;91980.34;;;23.23
43292;BMP280;28754;47.700;7.924;2022-07-05T11:05:00;91978.22;;;23.17
43292;BMP280;28754;47.700;7.924;2022-07-05T11:08:02;91969.50;;;23.13
43292;BMP280;28754;47.700;7.924;2022-07-05T11:11:12;91979.19;;;23.12
43292;BMP280;28754;47.700;7.924;2022-07-05T11:14:02;91973.16;;;23.20
43292;BMP280;28754;47.700;7.924;2022-07-05T11:20:11;91964.66;;;23.43
43292;BMP280;28754;47.700;7.924;2022-07-05T11:23:11;91966.25;;;23.56
43292;BMP280;28754;47.700;7.924;2022-07-05T11:25:58;91967.66;;;23.74
43292;BMP280;28754;47.700;7.924;2022-07-05T11:28:47;91972.75;;;23.91
43292;BMP280;28754;47.700;7.924;2022-07-05T11:31:40;91952.28;;;24.05
43292;BMP280;28754;47.700;7.924;2022-07-05T11:34:35;91958.19;;;24.13
43292;BMP280;28754;47.700;7.924;2022-07-05T11:37:22;91947.41;;;24.15
43292;BMP280;28754;47.700;7.924;2022-07-05T11:43:01;91946.16;;;24.33
43292;BMP280;28754;47.700;7.924;2022-07-05T11:45:59;91946.16;;;24.45
43292;BMP280;28754;47.700;7.924;2022-07-05T11:48:48;91938.97;;;24.53
43292;BMP280;28754;47.700;7.924;2022-07-05T11:51:35;91940.59;;;24.58
43292;BMP280;28754;47.700;7.924;2022-07-05T11:54:27;91936.03;;;24.67
43292;BMP280;28754;47.700;7.924;2022-07-05T11:57:14;91946.16;;;24.80
43292;BMP280;28754;47.700;7.924;2022-07-05T12:00:02;91952.81;;;24.78
43292;BMP280;28754;47.700;7.924;2022-07-05T12:02:59;91943.34;;;24.73
43292;BMP280;28754;47.700;7.924;2022-07-05T12:05:46;91942.22;;;24.74
43292;BMP280;28754;47.700;7.924;2022-07-05T12:08:33;91935.25;;;24.78
43292;BMP280;28754;47.700;7.924;2022-07-05T12:11:20;91949.13;;;24.79
43292;BMP280;28754;47.700;7.924;2022-07-05T12:14:33;91947.59;;;24.66
43292;BMP280;28754;47.700;7.924;2022-07-05T12:17:20;91943.00;;;24.63
43292;BMP280;28754;47.700;7.924;2022-07-05T12:20:10;91941.69;;;24.69
43292;BMP280;28754;47.700;7.924;2022-07-05T12:23:00;91939.06;;;24.81
43292;BMP280;28754;47.700;7.924;2022-07-05T12:25:47;91936.47;;;24.92
43292;BMP280;28754;47.700;7.924;2022-07-05T12:28:34;91938.09;;;24.97
43292;BMP280;28754;47.700;7.924;2022-07-05T12:31:24;91937.13;;;25.01
43292;BMP280;28754;47.700;7.924;2022-07-05T12:34:18;91941.03;;;24.95
43292;BMP280;28754;47.700;7.924;2022-07-05T12:37:08;91937.66;;;24.95
43292;BMP280;28754;47.700;7.924;2022-07-05T12:40:08;91936.69;;;24.99
43292;BMP280;28754;47.700;7.924;2022-07-05T12:43:05;91934.59;;;24.93
43292;BMP280;28754;47.700;7.924;2022-07-05T12:46:08;91926.75;;;24.93
43292;BMP280;28754;47.700;7.924;2022-07-05T12:48:54;91925.00;;;24.97
43292;BMP280;28754;47.700;7.924;2022-07-05T12:51:44;91935.03;;;24.95
43292;BMP280;28754;47.700;7.924;2022-07-05T12:54:31;91927.09;;;24.91
43292;BMP280;28754;47.700;7.924;2022-07-05T12:57:36;91923.91;;;24.86
43292;BMP280;28754;47.700;7.924;2022-07-05T13:00:45;91924.56;;;24.83
43292;BMP280;28754;47.700;7.924;2022-07-05T13:06:59;91930.22;;;24.61
43292;BMP280;28754;47.700;7.924;2022-07-05T13:09:46;91927.63;;;24.73
43292;BMP280;28754;47.700;7.924;2022-07-05T13:12:33;91927.09;;;24.91
43292;BMP280;28754;47.700;7.924;2022-07-05T13:15:20;91933.19;;;25.07
43292;BMP280;28754;47.700;7.924;2022-07-05T13:18:07;91923.53;;;25.23
43292;BMP280;28754;47.700;7.924;2022-07-05T13:20:54;91921.00;;;25.26
43292;BMP280;28754;47.700;7.924;2022-07-05T13:23:40;91929.31;;;25.28
43292;BMP280;28754;47.700;7.924;2022-07-05T13:26:28;91924.38;;;25.39
43292;BMP280;28754;47.700;7.924;2022-07-05T13:29:14;91917.56;;;25.50
43292;BMP280;28754;47.700;7.924;2022-07-05T13:32:02;91918.97;;;25.59
43292;BMP280;28754;47.700;7.924;2022-07-05T13:34:49;91921.03;;;25.65
43292;BMP280;28754;47.700;7.924;2022-07-05T13:37:36;91919.38;;;25.73
43292;BMP280;28754;47.700;7.924;2022-07-05T13:40:23;91927.00;;;25.78
43292;BMP280;28754;47.700;7.924;2022-07-05T13:43:10;91929.91;;;25.88
43292;BMP280;28754;47.700;7.924;2022-07-05T13:45:56;91922.63;;;25.97
43292;BMP280;28754;47.700;7.924;2022-07-05T13:48:43;91917.81;;;25.99
43292;BMP280;28754;47.700;7.924;2022-07-05T13:51:30;91922.31;;;25.98
43292;BMP280;28754;47.700;7.924;2022-07-05T13:54:16;91915.19;;;25.99
43292;BMP280;28754;47.700;7.924;2022-07-05T13:57:03;91918.81;;;25.94
43292;BMP280;28754;47.700;7.924;2022-07-05T13:59:50;91926.59;;;25.91
43292;BMP280;28754;47.700;7.924;2022-07-05T14:02:37;91926.84;;;25.86
43292;BMP280;28754;47.700;7.924;2022-07-05T14:05:24;91916.22;;;25.67
43292;BMP280;28754;47.700;7.924;2022-07-05T14:08:12;91917.63;;;25.53
43292;BMP280;28754;47.700;7.924;2022-07-05T14:10:58;91915.41;;;25.40
43292;BMP280;28754;47.700;7.924;2022-07-05T14:13:45;91916.09;;;25.25
43292;BMP280;28754;47.700;7.924;2022-07-05T14:16:32;91910.22;;;25.28
43292;BMP280;28754;47.700;7.924;2022-07-05T14:19:18;91923.06;;;25.33
43292;BMP280;28754;47.700;7.924;2022-07-05T14:22:05;91904.63;;;25.29
43292;BMP280;28754;47.700;7.924;2022-07-05T14:24:52;91911.91;;;25.36
43292;BMP280;28754;47.700;7.924;2022-07-05T14:27:38;91912.63;;;25.48
43292;BMP280;28754;47.700;7.924;2022-07-05T14:30:25;91904.53;;;25.53
43292;BMP280;28754;47.700;7.924;2022-07-05T14:33:15;91912.28;;;25.61
43292;BMP280;28754;47.700;7.924;2022-07-05T14:36:03;91913.34;;;25.72
43292;BMP280;28754;47.700;7.924;2022-07-05T14:38:51;91917.56;;;25.77
43292;BMP280;28754;47.700;7.924;2022-07-05T14:41:37;91918.97;;;25.86
43292;BMP280;28754;47.700;7.924;2022-07-05T14:44:24;91915.34;;;25.90
43292;BMP280;28754;47.700;7.924;2022-07-05T14:47:10;91913.53;;;25.79
43292;BMP280;28754;47.700;7.924;2022-07-05T14:49:57;91909.22;;;25.87
43292;BMP280;28754;47.700;7.924;2022-07-05T14:52:46;91898.16;;;25.93
43292;BMP280;28754;47.700;7.924;2022-07-05T14:55:34;91896.13;;;26.02
43292;BMP280;28754;47.700;7.924;2022-07-05T14:58:21;91897.50;;;26.11
43292;BMP280;28754;47.700;7.924;2022-07-05T15:01:09;91896.50;;;26.16
43292;BMP280;28754;47.700;7.924;2022-07-05T15:03:55;91888.72;;;26.19
43292;BMP280;28754;47.700;7.924;2022-07-05T15:06:42;91891.72;;;26.18
43292;BMP280;28754;47.700;7.924;2022-07-05T15:09:29;91881.34;;;26.09
43292;BMP280;28754;47.700;7.924;2022-07-05T15:12:15;91883.16;;;25.93
43292;BMP280;28754;47.700;7.924;2022-07-05T15:15:04;91888.34;;;25.90
43292;BMP280;28754;47.700;7.924;2022-07-05T15:17:51;91881.28;;;25.94
43292;BMP280;28754;47.700;7.924;2022-07-05T15:20:37;91883.16;;;25.93
43292;BMP280;28754;47.700;7.924;2022-07-05T15:23:24;91876.03;;;25.94
43292;BMP280;28754;47.700;7.924;2022-07-05T15:26:17;91881.41;;;25.97
43292;BMP280;28754;47.700;7.924;2022-07-05T15:29:06;91885.56;;;25.98
43292;BMP280;28754;47.700;7.924;2022-07-05T15:31:53;91885.63;;;26.02
43292;BMP280;28754;47.700;7.924;2022-07-05T15:34:40;91882.75;;;26.07
43292;BMP280;28754;47.700;7.924;2022-07-05T15:37:26;91877.84;;;26.05
43292;BMP280;28754;47.700;7.924;2022-07-05T15:40:13;91875.47;;;26.00
43292;BMP280;28754;47.700;7.924;2022-07-05T15:43:00;91884.13;;;26.01
43292;BMP280;28754;47.700;7.924;2022-07-05T15:45:47;91877.75;;;26.02
43292;BMP280;28754;47.700;7.924;2022-07-05T15:48:33;91874.38;;;26.01
43292;BMP280;28754;47.700;7.924;2022-07-05T15:51:20;91883.00;;;26.02
43292;BMP280;28754;47.700;7.924;2022-07-05T15:54:07;91876.69;;;26.03
43292;BMP280;28754;47.700;7.924;2022-07-05T15:56:54;91885.72;;;26.05
43292;BMP280;28754;47.700;7.924;2022-07-05T15:59:41;91880.38;;;26.02
43292;BMP280;28754;47.700;7.924;2022-07-05T16:02:27;91888.09;;;25.95
43292;BMP280;28754;47.700;7.924;2022-07-05T16:05:14;91874.78;;;25.88
43292;BMP280;28754;47.700;7.924;2022-07-05T16:08:01;91879.34;;;25.91
43292;BMP280;28754;47.700;7.924;2022-07-05T16:10:48;91876.03;;;25.94
43292;BMP280;28754;47.700;7.924;2022-07-05T16:13:34;91878.94;;;25.89
43292;BMP280;28754;47.700;7.924;2022-07-05T16:16:21;91874.38;;;25.86
43292;BMP280;28754;47.700;7.924;2022-07-05T16:19:08;91872.06;;;25.85
43292;BMP280;28754;47.700;7.924;2022-07-05T16:21:54;91863.25;;;25.77
43292;BMP280;28754;47.700;7.924;2022-07-05T16:24:41;91856.41;;;25.73